ESGG

Gothenburg-Landvetter Airport

Gothenburg, Sweden
METAR ESGG 190650Z 10006KT CAVOK M05/M06 Q0999 R21/19//95
Observed Flight Rules
Jan-19 @ 06:50 UTC (25 minutes ago) Visual Flight Rules
Wind Visibility Clouds
100° at 6 knots 10,000+ meters
  • Clear skies
Temperatures Readings
Current -5°C / 23°F
Dewpoint -6°C / 21°F
Humidity 93%
Altimeter 29.5" Hg
Pressure 999 hPa
Elevation 169
METAR ESGG 190650Z 10006KT CAVOK M05/M06 Q0999 R21/19//95
Observed Flight Rules
Jan-19 @ 06:50 UTC
(25 minutes ago)
VFR
Wind Visibility
100° at 6 knots 10,000+ meters
Clouds
  • Clear skies
Temperature Dewpoint
-5°C / 23°F -6°C / 21°F
Humidity Altimeter Pressure
93% 29.5" Hg 999 hPa